sensor_id;sensor_type;location;lat;lon;timestamp;P1;durP1;ratioP1;P2;durP2;ratioP2
37937;SDS011;23763;48.130;11.602;2024-01-15T00:01:29;6.40;;;5.90;;
37937;SDS011;23763;48.130;11.602;2024-01-15T00:03:55;7.53;;;5.90;;
37937;SDS011;23763;48.130;11.602;2024-01-15T00:06:20;7.60;;;6.43;;
37937;SDS011;23763;48.130;11.602;2024-01-15T00:08:46;6.57;;;5.97;;
37937;SDS011;23763;48.130;11.602;2024-01-15T00:11:12;7.10;;;6.40;;
37937;SDS011;23763;48.130;11.602;2024-01-15T00:13:38;7.43;;;6.07;;
37937;SDS011;23763;48.130;11.602;2024-01-15T00:16:06;8.47;;;6.27;;
37937;SDS011;23763;48.130;11.602;2024-01-15T00:18:32;7.27;;;6.67;;
37937;SDS011;23763;48.130;11.602;2024-01-15T00:20:57;8.83;;;6.93;;
37937;SDS011;23763;48.130;11.602;2024-01-15T00:23:23;8.33;;;7.43;;
37937;SDS011;23763;48.130;11.602;2024-01-15T00:25:50;10.03;;;7.47;;
37937;SDS011;23763;48.130;11.602;2024-01-15T00:28:16;7.63;;;6.77;;
37937;SDS011;23763;48.130;11.602;2024-01-15T00:30:42;8.60;;;7.80;;
37937;SDS011;23763;48.130;11.602;2024-01-15T00:33:07;8.93;;;7.33;;
37937;SDS011;23763;48.130;11.602;2024-01-15T00:35:33;9.70;;;7.93;;
37937;SDS011;23763;48.130;11.602;2024-01-15T00:37:59;8.70;;;7.43;;
37937;SDS011;23763;48.130;11.602;2024-01-15T00:40:25;8.67;;;7.77;;
37937;SDS011;23763;48.130;11.602;2024-01-15T00:42:50;9.87;;;7.60;;
37937;SDS011;23763;48.130;11.602;2024-01-15T00:45:16;8.43;;;7.03;;
37937;SDS011;23763;48.130;11.602;2024-01-15T00:47:42;7.73;;;7.03;;
37937;SDS011;23763;48.130;11.602;2024-01-15T00:50:07;8.30;;;7.50;;
37937;SDS011;23763;48.130;11.602;2024-01-15T00:52:33;8.50;;;7.60;;
37937;SDS011;23763;48.130;11.602;2024-01-15T00:54:59;9.20;;;7.73;;
37937;SDS011;23763;48.130;11.602;2024-01-15T00:57:25;8.37;;;7.47;;
37937;SDS011;23763;48.130;11.602;2024-01-15T00:59:50;8.53;;;7.63;;
37937;SDS011;23763;48.130;11.602;2024-01-15T01:02:16;8.63;;;7.27;;
37937;SDS011;23763;48.130;11.602;2024-01-15T01:04:42;8.47;;;7.63;;
37937;SDS011;23763;48.130;11.602;2024-01-15T01:07:07;8.67;;;7.77;;
37937;SDS011;23763;48.130;11.602;2024-01-15T01:09:33;9.70;;;8.70;;
37937;SDS011;23763;48.130;11.602;2024-01-15T01:11:59;9.37;;;8.43;;
37937;SDS011;23763;48.130;11.602;2024-01-15T01:14:25;11.97;;;10.07;;
37937;SDS011;23763;48.130;11.602;2024-01-15T01:16:50;12.00;;;9.77;;
37937;SDS011;23763;48.130;11.602;2024-01-15T01:19:16;12.47;;;9.93;;
37937;SDS011;23763;48.130;11.602;2024-01-15T01:21:42;11.07;;;9.03;;
37937;SDS011;23763;48.130;11.602;2024-01-15T01:24:07;11.77;;;9.83;;
37937;SDS011;23763;48.130;11.602;2024-01-15T01:26:33;13.23;;;9.40;;
37937;SDS011;23763;48.130;11.602;2024-01-15T01:28:59;10.87;;;9.30;;
37937;SDS011;23763;48.130;11.602;2024-01-15T01:31:24;10.10;;;7.90;;
37937;SDS011;23763;48.130;11.602;2024-01-15T01:33:50;12.87;;;8.97;;
37937;SDS011;23763;48.130;11.602;2024-01-15T01:36:15;11.47;;;9.73;;
37937;SDS011;23763;48.130;11.602;2024-01-15T01:38:41;11.77;;;8.90;;
37937;SDS011;23763;48.130;11.602;2024-01-15T01:41:07;16.30;;;10.07;;
37937;SDS011;23763;48.130;11.602;2024-01-15T01:43:32;10.27;;;8.70;;
37937;SDS011;23763;48.130;11.602;2024-01-15T01:45:59;12.07;;;9.80;;
37937;SDS011;23763;48.130;11.602;2024-01-15T01:48:26;12.33;;;9.43;;
37937;SDS011;23763;48.130;11.602;2024-01-15T01:50:56;10.70;;;8.90;;
37937;SDS011;23763;48.130;11.602;2024-01-15T01:53:24;11.50;;;9.27;;
37937;SDS011;23763;48.130;11.602;2024-01-15T01:55:52;11.57;;;9.33;;
37937;SDS011;23763;48.130;11.602;2024-01-15T01:58:18;11.77;;;9.40;;
37937;SDS011;23763;48.130;11.602;2024-01-15T02:00:45;11.10;;;8.37;;
37937;SDS011;23763;48.130;11.602;2024-01-15T02:03:12;11.57;;;9.13;;
37937;SDS011;23763;48.130;11.602;2024-01-15T02:05:37;9.67;;;8.67;;
37937;SDS011;23763;48.130;11.602;2024-01-15T02:08:05;11.00;;;8.83;;
37937;SDS011;23763;48.130;11.602;2024-01-15T02:10:31;10.83;;;9.60;;
37937;SDS011;23763;48.130;11.602;2024-01-15T02:12:57;10.47;;;9.37;;
37937;SDS011;23763;48.130;11.602;2024-01-15T02:15:23;10.43;;;8.60;;
37937;SDS011;23763;48.130;11.602;2024-01-15T02:20:25;11.20;;;9.03;;
37937;SDS011;23763;48.130;11.602;2024-01-15T02:22:51;11.57;;;8.80;;
37937;SDS011;23763;48.130;11.602;2024-01-15T02:25:16;11.87;;;9.10;;
37937;SDS011;23763;48.130;11.602;2024-01-15T02:27:43;11.43;;;8.87;;
37937;SDS011;23763;48.130;11.602;2024-01-15T02:30:09;12.23;;;9.47;;
37937;SDS011;23763;48.130;11.602;2024-01-15T02:32:37;10.57;;;8.93;;
37937;SDS011;23763;48.130;11.602;2024-01-15T02:35:03;12.30;;;9.20;;
37937;SDS011;23763;48.130;11.602;2024-01-15T02:37:29;11.77;;;9.73;;
37937;SDS011;23763;48.130;11.602;2024-01-15T02:39:55;10.60;;;9.17;;
37937;SDS011;23763;48.130;11.602;2024-01-15T02:42:20;11.13;;;8.63;;
37937;SDS011;23763;48.130;11.602;2024-01-15T02:44:46;11.30;;;9.50;;
37937;SDS011;23763;48.130;11.602;2024-01-15T02:47:13;12.87;;;10.00;;
37937;SDS011;23763;48.130;11.602;2024-01-15T02:49:39;10.50;;;8.97;;
37937;SDS011;23763;48.130;11.602;2024-01-15T02:52:05;11.00;;;8.93;;
37937;SDS011;23763;48.130;11.602;2024-01-15T02:54:31;11.13;;;9.43;;
37937;SDS011;23763;48.130;11.602;2024-01-15T02:56:56;9.80;;;8.80;;
37937;SDS011;23763;48.130;11.602;2024-01-15T02:59:22;10.33;;;9.33;;
37937;SDS011;23763;48.130;11.602;2024-01-15T03:01:47;12.13;;;9.03;;
37937;SDS011;23763;48.130;11.602;2024-01-15T03:04:13;11.47;;;8.67;;
37937;SDS011;23763;48.130;11.602;2024-01-15T03:06:39;13.03;;;9.40;;
37937;SDS011;23763;48.130;11.602;2024-01-15T03:09:04;12.23;;;9.90;;
37937;SDS011;23763;48.130;11.602;2024-01-15T03:11:36;11.43;;;8.93;;
37937;SDS011;23763;48.130;11.602;2024-01-15T03:14:03;9.80;;;8.80;;
37937;SDS011;23763;48.130;11.602;2024-01-15T03:16:28;10.50;;;8.97;;
37937;SDS011;23763;48.130;11.602;2024-01-15T03:18:54;10.43;;;8.27;;
37937;SDS011;23763;48.130;11.602;2024-01-15T03:21:20;10.83;;;8.73;;
37937;SDS011;23763;48.130;11.602;2024-01-15T03:23:45;10.87;;;8.97;;
37937;SDS011;23763;48.130;11.602;2024-01-15T03:26:11;9.30;;;7.87;;
37937;SDS011;23763;48.130;11.602;2024-01-15T03:28:36;9.53;;;8.47;;
37937;SDS011;23763;48.130;11.602;2024-01-15T03:31:02;9.10;;;8.20;;
37937;SDS011;23763;48.130;11.602;2024-01-15T03:33:28;9.80;;;7.93;;
37937;SDS011;23763;48.130;11.602;2024-01-15T03:35:53;9.60;;;8.57;;
37937;SDS011;23763;48.130;11.602;2024-01-15T03:38:19;9.20;;;8.33;;
37937;SDS011;23763;48.130;11.602;2024-01-15T03:40:44;11.37;;;8.50;;
37937;SDS011;23763;48.130;11.602;2024-01-15T03:43:10;8.83;;;7.43;;
37937;SDS011;23763;48.130;11.602;2024-01-15T03:45:36;9.73;;;7.83;;
37937;SDS011;23763;48.130;11.602;2024-01-15T03:48:01;9.93;;;8.50;;
37937;SDS011;23763;48.130;11.602;2024-01-15T03:50:27;9.07;;;7.90;;
37937;SDS011;23763;48.130;11.602;2024-01-15T03:52:53;9.17;;;8.03;;
37937;SDS011;23763;48.130;11.602;2024-01-15T03:55:18;10.30;;;8.07;;
37937;SDS011;23763;48.130;11.602;2024-01-15T03:57:44;8.73;;;7.83;;
37937;SDS011;23763;48.130;11.602;2024-01-15T04:00:09;9.90;;;8.40;;
37937;SDS011;23763;48.130;11.602;2024-01-15T04:02:36;10.43;;;8.10;;
37937;SDS011;23763;48.130;11.602;2024-01-15T04:05:01;8.80;;;7.93;;
37937;SDS011;23763;48.130;11.602;2024-01-15T04:07:27;9.23;;;8.03;;
37937;SDS011;23763;48.130;11.602;2024-01-15T04:09:53;8.13;;;7.23;;
37937;SDS011;23763;48.130;11.602;2024-01-15T04:12:18;9.00;;;7.90;;
37937;SDS011;23763;48.130;11.602;2024-01-15T04:14:44;10.43;;;8.33;;
37937;SDS011;23763;48.130;11.602;2024-01-15T04:17:10;8.20;;;7.40;;
37937;SDS011;23763;48.130;11.602;2024-01-15T04:19:35;8.47;;;7.40;;
37937;SDS011;23763;48.130;11.602;2024-01-15T04:22:01;10.33;;;7.87;;
37937;SDS011;23763;48.130;11.602;2024-01-15T04:24:26;9.07;;;8.10;;
37937;SDS011;23763;48.130;11.602;2024-01-15T04:26:52;10.53;;;8.20;;
37937;SDS011;23763;48.130;11.602;2024-01-15T04:29:18;10.70;;;8.10;;
37937;SDS011;23763;48.130;11.602;2024-01-15T04:31:43;8.07;;;7.33;;
37937;SDS011;23763;48.130;11.602;2024-01-15T04:34:09;8.40;;;7.43;;
37937;SDS011;23763;48.130;11.602;2024-01-15T04:36:41;9.13;;;7.57;;
37937;SDS011;23763;48.130;11.602;2024-01-15T04:39:06;7.97;;;7.23;;
37937;SDS011;23763;48.130;11.602;2024-01-15T04:41:32;8.83;;;7.93;;
37937;SDS011;23763;48.130;11.602;2024-01-15T04:43:58;10.47;;;8.07;;
37937;SDS011;23763;48.130;11.602;2024-01-15T04:46:26;9.00;;;7.50;;
37937;SDS011;23763;48.130;11.602;2024-01-15T04:48:52;10.30;;;7.83;;
37937;SDS011;23763;48.130;11.602;2024-01-15T04:51:17;8.27;;;7.50;;
37937;SDS011;23763;48.130;11.602;2024-01-15T04:53:43;9.57;;;7.30;;
37937;SDS011;23763;48.130;11.602;2024-01-15T04:56:09;10.07;;;7.80;;
37937;SDS011;23763;48.130;11.602;2024-01-15T04:58:35;8.70;;;7.77;;
37937;SDS011;23763;48.130;11.602;2024-01-15T05:01:01;8.37;;;7.53;;
37937;SDS011;23763;48.130;11.602;2024-01-15T05:03:26;8.30;;;7.33;;
37937;SDS011;23763;48.130;11.602;2024-01-15T05:05:52;7.83;;;7.03;;
37937;SDS011;23763;48.130;11.602;2024-01-15T05:08:17;10.60;;;8.33;;
37937;SDS011;23763;48.130;11.602;2024-01-15T05:10:43;8.63;;;7.77;;
37937;SDS011;23763;48.130;11.602;2024-01-15T05:13:09;7.90;;;7.17;;
37937;SDS011;23763;48.130;11.602;2024-01-15T05:15:34;10.00;;;7.23;;
37937;SDS011;23763;48.130;11.602;2024-01-15T05:18:00;8.17;;;7.13;;
37937;SDS011;23763;48.130;11.602;2024-01-15T05:20:26;8.13;;;7.37;;
37937;SDS011;23763;48.130;11.602;2024-01-15T05:22:51;8.70;;;7.90;;
37937;SDS011;23763;48.130;11.602;2024-01-15T05:25:17;8.13;;;7.33;;
37937;SDS011;23763;48.130;11.602;2024-01-15T05:27:42;8.50;;;7.80;;
37937;SDS011;23763;48.130;11.602;2024-01-15T05:30:08;8.13;;;7.33;;
37937;SDS011;23763;48.130;11.602;2024-01-15T05:32:34;8.53;;;7.73;;
37937;SDS011;23763;48.130;11.602;2024-01-15T05:35:00;8.53;;;7.67;;
37937;SDS011;23763;48.130;11.602;2024-01-15T05:37:25;7.53;;;6.73;;
37937;SDS011;23763;48.130;11.602;2024-01-15T05:39:51;7.97;;;7.17;;
37937;SDS011;23763;48.130;11.602;2024-01-15T05:42:16;9.13;;;7.70;;
37937;SDS011;23763;48.130;11.602;2024-01-15T05:44:42;8.13;;;7.33;;
37937;SDS011;23763;48.130;11.602;2024-01-15T05:47:08;10.23;;;7.33;;
37937;SDS011;23763;48.130;11.602;2024-01-15T05:49:33;7.30;;;6.70;;
37937;SDS011;23763;48.130;11.602;2024-01-15T05:51:59;8.77;;;7.87;;
37937;SDS011;23763;48.130;11.602;2024-01-15T05:54:24;8.60;;;7.40;;
37937;SDS011;23763;48.130;11.602;2024-01-15T05:56:50;8.20;;;7.33;;
37937;SDS011;23763;48.130;11.602;2024-01-15T05:59:16;8.70;;;7.80;;
37937;SDS011;23763;48.130;11.602;2024-01-15T06:01:42;8.33;;;7.53;;
37937;SDS011;23763;48.130;11.602;2024-01-15T06:04:07;7.57;;;6.90;;
37937;SDS011;23763;48.130;11.602;2024-01-15T06:06:33;7.30;;;6.70;;
37937;SDS011;23763;48.130;11.602;2024-01-15T06:08:58;8.33;;;7.53;;
37937;SDS011;23763;48.130;11.602;2024-01-15T06:11:30;8.00;;;7.23;;
37937;SDS011;23763;48.130;11.602;2024-01-15T06:13:56;8.27;;;7.43;;
37937;SDS011;23763;48.130;11.602;2024-01-15T06:16:22;8.90;;;8.10;;
37937;SDS011;23763;48.130;11.602;2024-01-15T06:18:49;8.67;;;7.83;;
37937;SDS011;23763;48.130;11.602;2024-01-15T06:21:17;8.73;;;7.83;;
37937;SDS011;23763;48.130;11.602;2024-01-15T06:23:43;8.43;;;7.47;;
37937;SDS011;23763;48.130;11.602;2024-01-15T06:26:11;9.80;;;7.73;;
37937;SDS011;23763;48.130;11.602;2024-01-15T06:28:37;8.43;;;7.63;;
37937;SDS011;23763;48.130;11.602;2024-01-15T06:31:02;7.77;;;7.07;;
37937;SDS011;23763;48.130;11.602;2024-01-15T06:33:28;8.27;;;7.60;;
37937;SDS011;23763;48.130;11.602;2024-01-15T06:35:54;8.17;;;7.37;;
37937;SDS011;23763;48.130;11.602;2024-01-15T06:38:22;8.67;;;7.37;;
37937;SDS011;23763;48.130;11.602;2024-01-15T06:40:50;10.97;;;7.20;;
37937;SDS011;23763;48.130;11.602;2024-01-15T06:43:16;8.30;;;7.53;;
37937;SDS011;23763;48.130;11.602;2024-01-15T06:45:43;8.40;;;7.50;;
37937;SDS011;23763;48.130;11.602;2024-01-15T06:48:09;9.40;;;7.17;;
37937;SDS011;23763;48.130;11.602;2024-01-15T06:50:34;9.43;;;7.23;;
37937;SDS011;23763;48.130;11.602;2024-01-15T06:53:00;10.37;;;7.63;;
37937;SDS011;23763;48.130;11.602;2024-01-15T06:55:26;9.77;;;7.13;;
37937;SDS011;23763;48.130;11.602;2024-01-15T06:57:52;8.37;;;7.57;;
37937;SDS011;23763;48.130;11.602;2024-01-15T07:00:18;7.93;;;7.13;;
37937;SDS011;23763;48.130;11.602;2024-01-15T07:02:47;8.90;;;7.80;;
37937;SDS011;23763;48.130;11.602;2024-01-15T07:05:12;8.97;;;8.17;;
37937;SDS011;23763;48.130;11.602;2024-01-15T07:07:38;7.70;;;7.00;;
37937;SDS011;23763;48.130;11.602;2024-01-15T07:10:04;9.27;;;7.93;;
37937;SDS011;23763;48.130;11.602;2024-01-15T07:12:31;10.90;;;7.73;;
37937;SDS011;23763;48.130;11.602;2024-01-15T07:14:56;10.53;;;7.57;;
37937;SDS011;23763;48.130;11.602;2024-01-15T07:17:22;9.67;;;7.57;;
37937;SDS011;23763;48.130;11.602;2024-01-15T07:19:48;7.83;;;7.07;;
37937;SDS011;23763;48.130;11.602;2024-01-15T07:22:13;8.47;;;7.67;;
37937;SDS011;23763;48.130;11.602;2024-01-15T07:24:42;10.17;;;7.50;;
37937;SDS011;23763;48.130;11.602;2024-01-15T07:27:08;9.40;;;7.80;;
37937;SDS011;23763;48.130;11.602;2024-01-15T07:29:34;10.00;;;7.60;;
37937;SDS011;23763;48.130;11.602;2024-01-15T07:32:03;7.60;;;6.90;;
37937;SDS011;23763;48.130;11.602;2024-01-15T07:34:29;9.43;;;7.90;;
37937;SDS011;23763;48.130;11.602;2024-01-15T07:36:56;8.37;;;7.50;;
37937;SDS011;23763;48.130;11.602;2024-01-15T07:39:23;11.23;;;7.90;;
37937;SDS011;23763;48.130;11.602;2024-01-15T07:41:49;8.30;;;7.50;;
37937;SDS011;23763;48.130;11.602;2024-01-15T07:44:15;8.17;;;7.37;;
37937;SDS011;23763;48.130;11.602;2024-01-15T07:49:13;8.67;;;7.97;;
37937;SDS011;23763;48.130;11.602;2024-01-15T07:51:39;9.40;;;7.77;;
37937;SDS011;23763;48.130;11.602;2024-01-15T07:54:05;8.30;;;7.50;;
37937;SDS011;23763;48.130;11.602;2024-01-15T07:56:31;10.50;;;8.47;;
37937;SDS011;23763;48.130;11.602;2024-01-15T07:58:59;11.57;;;8.13;;
37937;SDS011;23763;48.130;11.602;2024-01-15T08:01:25;8.33;;;7.37;;
37937;SDS011;23763;48.130;11.602;2024-01-15T08:03:51;8.13;;;7.30;;
37937;SDS011;23763;48.130;11.602;2024-01-15T08:06:17;8.60;;;7.77;;
37937;SDS011;23763;48.130;11.602;2024-01-15T08:08:43;9.93;;;7.83;;
37937;SDS011;23763;48.130;11.602;2024-01-15T08:11:08;7.97;;;7.17;;
37937;SDS011;23763;48.130;11.602;2024-01-15T08:13:34;9.03;;;7.40;;
37937;SDS011;23763;48.130;11.602;2024-01-15T08:15:59;8.93;;;7.90;;
37937;SDS011;23763;48.130;11.602;2024-01-15T08:18:25;8.30;;;7.50;;
37937;SDS011;23763;48.130;11.602;2024-01-15T08:20:51;9.53;;;7.30;;
37937;SDS011;23763;48.130;11.602;2024-01-15T08:23:17;8.80;;;7.80;;
37937;SDS011;23763;48.130;11.602;2024-01-15T08:25:42;8.33;;;7.53;;
37937;SDS011;23763;48.130;11.602;2024-01-15T08:28:08;11.17;;;7.43;;
37937;SDS011;23763;48.130;11.602;2024-01-15T08:30:34;7.67;;;6.80;;
37937;SDS011;23763;48.130;11.602;2024-01-15T08:32:59;8.37;;;7.33;;
37937;SDS011;23763;48.130;11.602;2024-01-15T08:35:25;7.67;;;6.97;;
37937;SDS011;23763;48.130;11.602;2024-01-15T08:37:54;7.17;;;6.57;;
37937;SDS011;23763;48.130;11.602;2024-01-15T08:40:20;8.00;;;7.20;;
37937;SDS011;23763;48.130;11.602;2024-01-15T08:42:46;9.47;;;7.90;;
37937;SDS011;23763;48.130;11.602;2024-01-15T08:45:11;8.13;;;7.43;;
37937;SDS011;23763;48.130;11.602;2024-01-15T08:47:37;8.37;;;7.57;;
37937;SDS011;23763;48.130;11.602;2024-01-15T08:50:03;7.80;;;7.10;;
37937;SDS011;23763;48.130;11.602;2024-01-15T08:52:30;8.10;;;7.30;;
37937;SDS011;23763;48.130;11.602;2024-01-15T08:54:58;8.90;;;7.17;;
37937;SDS011;23763;48.130;11.602;2024-01-15T08:57:26;7.33;;;6.63;;
37937;SDS011;23763;48.130;11.602;2024-01-15T08:59:51;9.10;;;6.80;;
37937;SDS011;23763;48.130;11.602;2024-01-15T09:02:17;7.93;;;7.23;;
37937;SDS011;23763;48.130;11.602;2024-01-15T09:04:42;8.10;;;7.40;;
37937;SDS011;23763;48.130;11.602;2024-01-15T09:07:08;10.00;;;7.60;;
37937;SDS011;23763;48.130;11.602;2024-01-15T09:09:37;8.73;;;7.90;;
37937;SDS011;23763;48.130;11.602;2024-01-15T09:12:02;8.40;;;7.57;;
37937;SDS011;23763;48.130;11.602;2024-01-15T09:14:28;7.97;;;7.27;;
37937;SDS011;23763;48.130;11.602;2024-01-15T09:16:54;8.77;;;7.77;;
37937;SDS011;23763;48.130;11.602;2024-01-15T09:19:20;8.80;;;7.90;;
37937;SDS011;23763;48.130;11.602;2024-01-15T09:21:46;9.10;;;7.63;;
37937;SDS011;23763;48.130;11.602;2024-01-15T09:24:11;8.60;;;7.37;;
37937;SDS011;23763;48.130;11.602;2024-01-15T09:26:37;8.00;;;6.73;;
37937;SDS011;23763;48.130;11.602;2024-01-15T09:29:02;9.03;;;7.67;;
37937;SDS011;23763;48.130;11.602;2024-01-15T09:31:28;8.03;;;7.00;;
37937;SDS011;23763;48.130;11.602;2024-01-15T09:33:54;8.50;;;7.70;;
37937;SDS011;23763;48.130;11.602;2024-01-15T09:36:22;8.43;;;7.40;;
37937;SDS011;23763;48.130;11.602;2024-01-15T09:39:11;8.07;;;7.27;;
37937;SDS011;23763;48.130;11.602;2024-01-15T09:41:40;8.60;;;7.13;;
37937;SDS011;23763;48.130;11.602;2024-01-15T09:44:15;8.00;;;7.03;;
37937;SDS011;23763;48.130;11.602;2024-01-15T09:46:42;8.37;;;7.37;;
37937;SDS011;23763;48.130;11.602;2024-01-15T09:49:10;11.50;;;7.67;;
37937;SDS011;23763;48.130;11.602;2024-01-15T09:51:36;10.23;;;7.53;;
37937;SDS011;23763;48.130;11.602;2024-01-15T09:54:03;7.67;;;6.87;;
37937;SDS011;23763;48.130;11.602;2024-01-15T09:56:30;8.00;;;7.20;;
37937;SDS011;23763;48.130;11.602;2024-01-15T09:58:56;8.90;;;7.20;;
37937;SDS011;23763;48.130;11.602;2024-01-15T10:01:23;8.97;;;6.83;;
37937;SDS011;23763;48.130;11.602;2024-01-15T10:03:49;7.80;;;7.00;;
37937;SDS011;23763;48.130;11.602;2024-01-15T10:06:16;6.77;;;6.07;;
37937;SDS011;23763;48.130;11.602;2024-01-15T10:08:42;7.17;;;6.47;;
37937;SDS011;23763;48.130;11.602;2024-01-15T10:11:12;9.27;;;6.70;;
37937;SDS011;23763;48.130;11.602;2024-01-15T10:13:38;7.80;;;6.90;;
37937;SDS011;23763;48.130;11.602;2024-01-15T10:16:04;6.73;;;6.13;;
37937;SDS011;23763;48.130;11.602;2024-01-15T10:18:31;7.57;;;6.30;;
37937;SDS011;23763;48.130;11.602;2024-01-15T10:20:57;7.20;;;6.50;;
37937;SDS011;23763;48.130;11.602;2024-01-15T10:23:23;7.13;;;6.43;;
37937;SDS011;23763;48.130;11.602;2024-01-15T10:25:49;7.50;;;6.50;;
37937;SDS011;23763;48.130;11.602;2024-01-15T10:28:16;7.07;;;6.37;;
37937;SDS011;23763;48.130;11.602;2024-01-15T10:30:44;7.43;;;6.03;;
37937;SDS011;23763;48.130;11.602;2024-01-15T10:33:10;7.20;;;6.53;;
37937;SDS011;23763;48.130;11.602;2024-01-15T10:35:37;6.73;;;6.17;;
37937;SDS011;23763;48.130;11.602;2024-01-15T10:38:03;7.07;;;6.00;;
37937;SDS011;23763;48.130;11.602;2024-01-15T10:40:30;6.67;;;6.07;;
37937;SDS011;23763;48.130;11.602;2024-01-15T10:42:56;6.70;;;6.13;;
37937;SDS011;23763;48.130;11.602;2024-01-15T10:45:23;6.57;;;5.97;;
37937;SDS011;23763;48.130;11.602;2024-01-15T10:47:49;7.93;;;6.20;;
37937;SDS011;23763;48.130;11.602;2024-01-15T10:50:15;8.40;;;6.83;;
37937;SDS011;23763;48.130;11.602;2024-01-15T10:52:41;7.67;;;6.43;;
37937;SDS011;23763;48.130;11.602;2024-01-15T10:55:08;6.53;;;5.97;;
37937;SDS011;23763;48.130;11.602;2024-01-15T10:57:38;6.30;;;5.80;;
37937;SDS011;23763;48.130;11.602;2024-01-15T11:00:04;6.63;;;6.13;;
37937;SDS011;23763;48.130;11.602;2024-01-15T11:02:35;6.07;;;5.60;;
37937;SDS011;23763;48.130;11.602;2024-01-15T11:05:02;7.07;;;6.37;;
37937;SDS011;23763;48.130;11.602;2024-01-15T11:07:29;9.00;;;7.30;;
37937;SDS011;23763;48.130;11.602;2024-01-15T11:09:56;6.83;;;6.23;;
37937;SDS011;23763;48.130;11.602;2024-01-15T11:12:24;8.57;;;6.87;;
37937;SDS011;23763;48.130;11.602;2024-01-15T11:14:49;6.80;;;6.23;;
37937;SDS011;23763;48.130;11.602;2024-01-15T11:17:16;7.50;;;6.80;;
37937;SDS011;23763;48.130;11.602;2024-01-15T11:25:03;7.07;;;6.47;;
37937;SDS011;23763;48.130;11.602;2024-01-15T11:27:40;8.97;;;7.53;;
37937;SDS011;23763;48.130;11.602;2024-01-15T11:30:12;6.97;;;6.27;;
37937;SDS011;23763;48.130;11.602;2024-01-15T11:32:39;6.47;;;5.97;;
37937;SDS011;23763;48.130;11.602;2024-01-15T11:35:08;6.73;;;6.03;;
37937;SDS011;23763;48.130;11.602;2024-01-15T11:40:43;6.73;;;6.13;;
37937;SDS011;23763;48.130;11.602;2024-01-15T11:43:10;5.80;;;5.33;;
37937;SDS011;23763;48.130;11.602;2024-01-15T11:45:38;6.63;;;6.13;;
37937;SDS011;23763;48.130;11.602;2024-01-15T11:50:38;12.13;;;10.03;;
37937;SDS011;23763;48.130;11.602;2024-01-15T11:53:08;6.97;;;6.30;;
37937;SDS011;23763;48.130;11.602;2024-01-15T11:55:59;6.30;;;5.80;;
37937;SDS011;23763;48.130;11.602;2024-01-15T11:58:27;5.90;;;5.40;;
37937;SDS011;23763;48.130;11.602;2024-01-15T12:00:54;6.37;;;5.77;;
37937;SDS011;23763;48.130;11.602;2024-01-15T12:03:21;6.07;;;5.67;;
37937;SDS011;23763;48.130;11.602;2024-01-15T12:05:47;6.07;;;5.67;;
37937;SDS011;23763;48.130;11.602;2024-01-15T12:08:13;5.80;;;5.40;;
37937;SDS011;23763;48.130;11.602;2024-01-15T12:10:39;6.20;;;5.70;;
37937;SDS011;23763;48.130;11.602;2024-01-15T12:13:12;7.53;;;5.97;;
37937;SDS011;23763;48.130;11.602;2024-01-15T12:15:39;6.10;;;5.60;;
37937;SDS011;23763;48.130;11.602;2024-01-15T12:18:08;5.80;;;5.40;;
37937;SDS011;23763;48.130;11.602;2024-01-15T12:20:35;6.00;;;5.60;;
37937;SDS011;23763;48.130;11.602;2024-01-15T12:23:01;6.50;;;6.00;;
37937;SDS011;23763;48.130;11.602;2024-01-15T12:25:35;6.00;;;5.50;;
37937;SDS011;23763;48.130;11.602;2024-01-15T12:28:01;6.30;;;5.80;;
37937;SDS011;23763;48.130;11.602;2024-01-15T12:30:27;5.67;;;5.27;;
37937;SDS011;23763;48.130;11.602;2024-01-15T12:32:54;5.37;;;5.00;;
37937;SDS011;23763;48.130;11.602;2024-01-15T12:35:20;6.00;;;5.60;;
37937;SDS011;23763;48.130;11.602;2024-01-15T12:37:46;5.63;;;5.13;;
37937;SDS011;23763;48.130;11.602;2024-01-15T12:40:13;5.97;;;5.43;;
37937;SDS011;23763;48.130;11.602;2024-01-15T12:42:43;5.67;;;5.23;;
37937;SDS011;23763;48.130;11.602;2024-01-15T12:45:09;5.73;;;5.30;;
37937;SDS011;23763;48.130;11.602;2024-01-15T12:47:36;5.47;;;5.07;;
37937;SDS011;23763;48.130;11.602;2024-01-15T12:50:05;5.57;;;5.07;;
37937;SDS011;23763;48.130;11.602;2024-01-15T12:52:35;5.70;;;5.30;;
37937;SDS011;23763;48.130;11.602;2024-01-15T12:55:03;5.90;;;5.47;;
37937;SDS011;23763;48.130;11.602;2024-01-15T12:57:30;6.03;;;5.47;;
37937;SDS011;23763;48.130;11.602;2024-01-15T12:59:56;5.50;;;5.10;;
37937;SDS011;23763;48.130;11.602;2024-01-15T13:02:21;5.43;;;5.03;;
37937;SDS011;23763;48.130;11.602;2024-01-15T13:04:47;5.87;;;5.30;;
37937;SDS011;23763;48.130;11.602;2024-01-15T13:07:13;6.03;;;5.50;;
37937;SDS011;23763;48.130;11.602;2024-01-15T13:09:39;11.10;;;8.13;;
37937;SDS011;23763;48.130;11.602;2024-01-15T13:12:05;5.80;;;5.40;;
37937;SDS011;23763;48.130;11.602;2024-01-15T13:14:31;5.63;;;5.13;;
37937;SDS011;23763;48.130;11.602;2024-01-15T13:16:57;5.10;;;4.80;;
37937;SDS011;23763;48.130;11.602;2024-01-15T13:19:23;5.37;;;4.97;;
37937;SDS011;23763;48.130;11.602;2024-01-15T13:21:49;6.00;;;5.40;;
37937;SDS011;23763;48.130;11.602;2024-01-15T13:24:16;5.60;;;5.20;;
37937;SDS011;23763;48.130;11.602;2024-01-15T13:26:46;9.07;;;5.17;;
37937;SDS011;23763;48.130;11.602;2024-01-15T13:29:12;6.87;;;5.43;;
37937;SDS011;23763;48.130;11.602;2024-01-15T13:31:38;5.93;;;5.53;;
37937;SDS011;23763;48.130;11.602;2024-01-15T13:34:05;7.60;;;6.47;;
37937;SDS011;23763;48.130;11.602;2024-01-15T13:36:32;8.77;;;6.03;;
37937;SDS011;23763;48.130;11.602;2024-01-15T13:38:57;6.30;;;5.70;;
37937;SDS011;23763;48.130;11.602;2024-01-15T13:41:24;6.40;;;5.90;;
37937;SDS011;23763;48.130;11.602;2024-01-15T13:43:53;5.73;;;5.30;;
37937;SDS011;23763;48.130;11.602;2024-01-15T13:46:23;6.40;;;5.80;;
37937;SDS011;23763;48.130;11.602;2024-01-15T13:48:51;6.57;;;6.07;;
37937;SDS011;23763;48.130;11.602;2024-01-15T13:51:17;6.57;;;5.97;;
37937;SDS011;23763;48.130;11.602;2024-01-15T13:53:43;6.37;;;5.87;;
37937;SDS011;23763;48.130;11.602;2024-01-15T13:56:08;5.90;;;5.40;;
37937;SDS011;23763;48.130;11.602;2024-01-15T13:58:35;6.43;;;5.83;;
37937;SDS011;23763;48.130;11.602;2024-01-15T14:01:02;6.03;;;5.53;;
37937;SDS011;23763;48.130;11.602;2024-01-15T14:03:31;7.13;;;6.47;;
37937;SDS011;23763;48.130;11.602;2024-01-15T14:05:57;6.83;;;6.23;;
37937;SDS011;23763;48.130;11.602;2024-01-15T14:08:23;7.70;;;6.30;;
37937;SDS011;23763;48.130;11.602;2024-01-15T14:10:49;7.27;;;6.40;;
37937;SDS011;23763;48.130;11.602;2024-01-15T14:13:14;7.50;;;6.80;;
37937;SDS011;23763;48.130;11.602;2024-01-15T14:15:40;6.87;;;6.27;;
37937;SDS011;23763;48.130;11.602;2024-01-15T14:18:06;6.30;;;5.80;;
37937;SDS011;23763;48.130;11.602;2024-01-15T14:20:32;6.70;;;6.10;;
37937;SDS011;23763;48.130;11.602;2024-01-15T14:22:58;6.60;;;6.00;;
37937;SDS011;23763;48.130;11.602;2024-01-15T14:25:24;8.33;;;6.53;;
37937;SDS011;23763;48.130;11.602;2024-01-15T14:27:49;6.00;;;5.60;;
37937;SDS011;23763;48.130;11.602;2024-01-15T14:30:15;6.80;;;5.43;;
37937;SDS011;23763;48.130;11.602;2024-01-15T14:32:42;6.63;;;6.03;;
37937;SDS011;23763;48.130;11.602;2024-01-15T14:35:08;6.47;;;5.97;;
37937;SDS011;23763;48.130;11.602;2024-01-15T14:37:36;6.63;;;6.03;;
37937;SDS011;23763;48.130;11.602;2024-01-15T14:40:02;6.50;;;5.90;;
37937;SDS011;23763;48.130;11.602;2024-01-15T14:42:29;6.33;;;5.73;;